createdAt,value
2019-03-02T00:00:12.437Z,49.27
2019-03-02T00:02:44.477Z,43.63
2019-03-02T00:05:16.633Z,56.73
2019-03-02T00:07:49.331Z,56.33
2019-03-02T00:10:21.439Z,45.73
2019-03-02T00:12:53.637Z,43.47
2019-03-02T00:15:26.926Z,49.83
2019-03-02T00:18:06.788Z,51.27
2019-03-02T00:20:38.920Z,45.37
2019-03-02T00:23:11.026Z,49.13
2019-03-02T00:25:43.046Z,44.43
2019-03-02T00:28:15.080Z,49.33
2019-03-02T00:30:47.274Z,50.20
2019-03-02T00:33:19.786Z,44.87
2019-03-02T00:35:52.859Z,45.20
2019-03-02T00:38:24.920Z,51.03
2019-03-02T00:40:56.937Z,56.03
2019-03-02T00:43:29.050Z,54.80
2019-03-02T00:46:01.144Z,44.00
2019-03-02T00:48:33.172Z,60.53
2019-03-02T00:51:07.867Z,46.50
2019-03-02T00:53:38.897Z,56.67
2019-03-02T00:56:10.918Z,41.27
2019-03-02T00:58:43.009Z,42.07
2019-03-02T01:01:15.123Z,47.33
2019-03-02T01:03:47.715Z,50.40
2019-03-02T01:06:21.154Z,46.17
2019-03-02T01:08:53.282Z,51.50
2019-03-02T01:11:25.313Z,51.47
2019-03-02T01:13:57.668Z,53.70
2019-03-02T01:16:29.718Z,55.60
2019-03-02T01:19:01.829Z,42.50
2019-03-02T01:21:33.949Z,40.30
2019-03-02T01:24:06.073Z,42.00
2019-03-02T01:26:38.169Z,51.23
2019-03-02T01:29:10.188Z,53.90
2019-03-02T01:31:42.384Z,50.17
2019-03-02T01:34:14.403Z,38.17
2019-03-02T01:36:46.511Z,41.80
2019-03-02T01:39:18.595Z,49.10
2019-03-02T01:41:51.062Z,42.90
2019-03-02T01:44:24.330Z,39.43
2019-03-02T01:46:56.564Z,43.80
2019-03-02T01:49:28.657Z,41.30
2019-03-02T01:52:00.683Z,44.37
2019-03-02T01:54:32.720Z,44.63
2019-03-02T01:57:04.836Z,36.43
2019-03-02T01:59:38.673Z,38.70
2019-03-02T02:02:10.670Z,43.50
2019-03-02T02:04:42.684Z,38.83
2019-03-02T02:07:18.153Z,44.30
2019-03-02T02:09:48.415Z,47.70
2019-03-02T02:12:20.644Z,43.27
2019-03-02T02:14:54.433Z,36.20
2019-03-02T02:17:26.501Z,42.93
2019-03-02T02:19:58.683Z,52.03
2019-03-02T02:22:30.746Z,46.47
2019-03-02T02:25:02.781Z,46.53
2019-03-02T02:27:34.847Z,47.17
2019-03-02T02:30:12.332Z,41.43
2019-03-02T02:32:44.439Z,49.60
2019-03-02T02:35:16.765Z,51.07
2019-03-02T02:37:48.867Z,35.63
2019-03-02T02:40:21.094Z,39.20
2019-03-02T02:42:53.329Z,39.47
2019-03-02T02:45:25.591Z,36.20
2019-03-02T02:47:57.694Z,47.57
2019-03-02T02:50:31.440Z,45.50
2019-03-02T02:53:06.950Z,42.43
2019-03-02T02:55:40.967Z,41.57
2019-03-02T02:58:12.568Z,39.43
2019-03-02T03:00:44.849Z,39.97
2019-03-02T03:03:20.938Z,33.40
2019-03-02T03:05:54.099Z,31.80
2019-03-02T03:08:44.055Z,32.80
2019-03-02T03:11:16.439Z,30.13
2019-03-02T03:13:48.532Z,34.93
2019-03-02T03:16:20.627Z,32.20
2019-03-02T03:18:53.729Z,37.43
2019-03-02T03:21:27.791Z,30.97
2019-03-02T03:24:03.843Z,35.57
2019-03-02T03:26:35.266Z,39.07
2019-03-02T03:29:09.569Z,36.33
2019-03-02T03:31:40.934Z,37.57
2019-03-02T03:34:13.019Z,31.50
2019-03-02T03:36:45.110Z,39.33
2019-03-02T03:39:17.136Z,34.93
2019-03-02T03:41:49.217Z,36.60
2019-03-02T03:44:25.898Z,37.10
2019-03-02T03:46:56.099Z,39.73
2019-03-02T03:49:34.349Z,39.93
2019-03-02T03:52:09.040Z,37.03
2019-03-02T03:54:40.993Z,41.73
2019-03-02T03:57:11.755Z,31.37
2019-03-02T03:59:43.778Z,35.53
2019-03-02T04:02:15.804Z,36.33
2019-03-02T04:04:47.910Z,39.10
2019-03-02T04:07:20.007Z,33.87
2019-03-02T04:09:52.118Z,33.43
2019-03-02T04:12:25.746Z,43.03
2019-03-02T04:15:01.409Z,33.47
2019-03-02T04:17:34.078Z,35.67
2019-03-02T04:20:08.158Z,27.63
2019-03-02T04:22:44.622Z,40.73
2019-03-02T04:25:17.995Z,37.70
2019-03-02T04:27:53.209Z,31.20
2019-03-02T04:30:21.523Z,35.90
2019-03-02T04:32:53.608Z,44.80
2019-03-02T04:35:25.638Z,33.63
2019-03-02T04:38:00.607Z,35.87
2019-03-02T04:40:31.462Z,41.10
2019-03-02T04:43:03.577Z,30.90
2019-03-02T04:45:36.495Z,36.67
2019-03-02T04:48:09.335Z,30.07
2019-03-02T04:50:41.722Z,32.83
2019-03-02T04:53:13.739Z,37.80
2019-03-02T04:55:48.551Z,30.70
2019-03-02T04:58:19.553Z,32.77
2019-03-02T05:00:51.643Z,37.93
2019-03-02T05:03:23.745Z,29.00
2019-03-02T05:05:55.839Z,34.60
2019-03-02T05:08:27.946Z,35.57
2019-03-02T05:11:00.741Z,36.83
2019-03-02T05:13:33.781Z,33.90
2019-03-02T05:16:05.998Z,31.43
2019-03-02T05:18:38.110Z,42.77
2019-03-02T05:21:10.424Z,33.27
2019-03-02T05:23:42.564Z,31.23
2019-03-02T05:26:14.667Z,36.20
2019-03-02T05:28:46.786Z,34.13
2019-03-02T05:31:18.882Z,32.63
2019-03-02T05:33:50.918Z,29.53
2019-03-02T05:36:26.676Z,34.60
2019-03-02T05:38:56.748Z,35.83
2019-03-02T05:41:28.844Z,31.27
2019-03-02T05:44:00.871Z,37.43
2019-03-02T05:46:32.887Z,33.63
2019-03-02T05:49:04.996Z,35.00
2019-03-02T05:51:39.001Z,41.03
2019-03-02T05:54:10.799Z,38.77
2019-03-02T05:56:42.890Z,33.97
2019-03-02T05:59:14.995Z,35.20
2019-03-02T06:01:47.086Z,30.93
2019-03-02T06:04:22.103Z,33.20
2019-03-02T06:06:54.077Z,40.83
2019-03-02T06:09:26.318Z,34.20
2019-03-02T06:11:58.347Z,33.07
2019-03-02T06:14:31.775Z,38.57
2019-03-02T06:17:03.946Z,34.07
2019-03-02T06:19:35.988Z,30.77
2019-03-02T06:22:07.998Z,32.27
2019-03-02T06:24:41.068Z,38.53
2019-03-02T06:27:13.422Z,39.57
2019-03-02T06:29:45.440Z,41.37
2019-03-02T06:32:17.530Z,36.70
2019-03-02T06:34:51.903Z,33.73
2019-03-02T06:37:23.463Z,30.10
2019-03-02T06:39:56.324Z,30.00
2019-03-02T06:42:28.435Z,29.17
2019-03-02T06:45:00.532Z,34.77
2019-03-02T06:47:33.379Z,33.97
2019-03-02T06:50:06.150Z,30.27
2019-03-02T06:52:38.502Z,29.20
2019-03-02T06:55:11.695Z,36.47
2019-03-02T06:57:46.162Z,36.63
2019-03-02T07:00:19.667Z,35.00
2019-03-02T07:02:51.874Z,33.10
2019-03-02T07:05:23.913Z,27.87
2019-03-02T07:07:57.318Z,29.73
2019-03-02T07:10:29.721Z,28.47
2019-03-02T07:13:03.226Z,28.70
2019-03-02T07:15:35.323Z,29.40
2019-03-02T07:18:24.676Z,35.33
2019-03-02T07:20:59.503Z,34.37
2019-03-02T07:23:30.466Z,28.30
2019-03-02T07:26:03.342Z,27.87
2019-03-02T07:28:38.831Z,31.07
2019-03-02T07:31:09.218Z,29.40
2019-03-02T07:33:41.265Z,31.53
2019-03-02T07:36:13.288Z,31.07
2019-03-02T07:38:45.342Z,29.50
2019-03-02T07:41:18.789Z,30.93
2019-03-02T07:43:51.039Z,28.30
2019-03-02T07:46:23.134Z,26.80
2019-03-02T07:48:55.129Z,27.00
2019-03-02T07:51:27.235Z,23.33
2019-03-02T07:54:02.160Z,22.50
2019-03-02T07:56:33.424Z,23.43
2019-03-02T07:59:12.787Z,27.90
2019-03-02T08:01:44.879Z,26.97
2019-03-02T08:04:16.850Z,25.70
2019-03-02T08:06:48.970Z,27.27
2019-03-02T08:09:22.003Z,26.00
2019-03-02T08:11:54.656Z,27.27
2019-03-02T08:14:26.639Z,28.53
2019-03-02T08:16:58.651Z,25.83
2019-03-02T08:19:31.627Z,22.07
2019-03-02T08:22:04.409Z,27.30
2019-03-02T08:24:36.513Z,38.77
2019-03-02T08:27:10.334Z,29.00
2019-03-02T08:29:42.421Z,23.73
2019-03-02T08:32:17.632Z,23.67
2019-03-02T08:34:48.208Z,22.57
2019-03-02T08:37:20.407Z,24.70
2019-03-02T08:39:54.198Z,26.10
2019-03-02T08:42:26.220Z,23.97
2019-03-02T08:44:58.199Z,19.40
2019-03-02T08:47:30.221Z,20.27
2019-03-02T08:50:02.279Z,25.20
2019-03-02T08:52:34.372Z,23.43
2019-03-02T08:55:07.263Z,21.90
2019-03-02T08:57:39.270Z,22.83
2019-03-02T09:00:16.541Z,23.37
2019-03-02T09:02:48.736Z,19.83
2019-03-02T09:05:23.184Z,23.70
2019-03-02T09:07:54.621Z,20.83
2019-03-02T09:10:26.977Z,18.50
2019-03-02T09:12:59.790Z,21.73
2019-03-02T09:15:32.129Z,19.53
2019-03-02T09:18:04.239Z,19.17
2019-03-02T09:20:37.004Z,20.53
2019-03-02T09:23:09.291Z,22.30
2019-03-02T09:25:41.297Z,19.50
2019-03-02T09:28:13.323Z,20.97
2019-03-02T09:30:45.421Z,19.50
2019-03-02T09:33:17.517Z,29.23
2019-03-02T09:35:54.667Z,72.53
2019-03-02T09:38:23.253Z,45.40
2019-03-02T09:40:55.279Z,24.17
2019-03-02T09:43:27.299Z,23.57
2019-03-02T09:45:59.420Z,21.80
2019-03-02T09:48:31.516Z,19.67
2019-03-02T09:51:03.709Z,21.53
2019-03-02T09:53:35.814Z,17.50
2019-03-02T09:56:07.829Z,17.67
2019-03-02T09:58:42.170Z,15.47
2019-03-02T10:01:14.272Z,18.30
2019-03-02T10:03:46.312Z,21.23
2019-03-02T10:06:21.803Z,20.43
2019-03-02T10:08:52.133Z,21.03
2019-03-02T10:11:24.241Z,21.53
2019-03-02T10:13:56.275Z,23.13
2019-03-02T10:16:28.396Z,20.70
2019-03-02T10:19:00.483Z,22.33
2019-03-02T10:21:32.715Z,25.87
2019-03-02T10:24:04.939Z,22.30
2019-03-02T10:26:39.829Z,26.47
2019-03-02T10:29:12.380Z,24.43
2019-03-02T10:31:44.853Z,22.87
2019-03-02T10:34:17.314Z,25.23
2019-03-02T10:36:49.370Z,25.47
2019-03-02T10:39:21.489Z,22.83
2019-03-02T10:41:57.057Z,27.77
2019-03-02T10:44:28.930Z,29.10
2019-03-02T10:47:01.036Z,29.77
2019-03-02T10:49:33.049Z,24.63
2019-03-02T10:52:05.125Z,24.33
2019-03-02T10:54:37.148Z,35.07
2019-03-02T10:57:09.153Z,23.77
2019-03-02T10:59:41.180Z,24.20
2019-03-02T11:02:13.304Z,23.80
2019-03-02T11:05:12.736Z,25.57
2019-03-02T11:08:06.601Z,24.17
2019-03-02T11:10:52.214Z,21.00
2019-03-02T11:13:30.428Z,28.83
2019-03-02T11:16:33.237Z,28.80
2019-03-02T11:19:36.354Z,25.27
2019-03-02T11:22:46.244Z,25.50
2019-03-02T11:25:37.148Z,28.03
2019-03-02T11:28:23.860Z,29.30
2019-03-02T11:31:16.720Z,24.83
2019-03-02T11:34:06.069Z,34.13
2019-03-02T11:36:56.886Z,26.30
2019-03-02T11:39:49.971Z,32.63
2019-03-02T11:42:38.904Z,29.70
2019-03-02T11:45:29.971Z,24.67
2019-03-02T11:48:38.648Z,31.30
2019-03-02T11:51:24.003Z,38.40
2019-03-02T11:54:25.075Z,30.60
2019-03-02T11:57:17.855Z,26.47
2019-03-02T12:00:13.984Z,28.60
2019-03-02T12:03:04.826Z,29.83
2019-03-02T12:05:49.196Z,32.77
2019-03-02T12:08:36.505Z,35.43
2019-03-02T12:11:36.217Z,32.90
2019-03-02T12:14:30.126Z,32.10
2019-03-02T12:17:26.692Z,32.13
2019-03-02T12:20:16.068Z,31.00
2019-03-02T12:23:12.777Z,32.70
2019-03-02T12:26:12.010Z,31.40
2019-03-02T12:29:14.888Z,32.70
2019-03-02T12:32:17.951Z,35.20
2019-03-02T12:34:58.777Z,34.80
2019-03-02T12:37:52.398Z,34.73
2019-03-02T12:40:43.257Z,32.30
2019-03-02T12:43:34.230Z,31.60
2019-03-02T12:46:16.819Z,24.67
2019-03-02T12:49:19.533Z,32.00
2019-03-02T12:52:22.597Z,27.90
2019-03-02T12:55:16.425Z,28.47
2019-03-02T12:57:57.981Z,28.17
2019-03-02T13:00:51.530Z,34.70
2019-03-02T13:03:45.070Z,37.03
2019-03-02T13:06:41.590Z,29.10
2019-03-02T13:09:31.907Z,27.87
2019-03-02T13:12:21.442Z,27.07
2019-03-02T13:15:18.289Z,25.23
2019-03-02T13:18:24.272Z,32.03
2019-03-02T13:21:30.007Z,31.53
2019-03-02T13:24:23.584Z,26.00
2019-03-02T13:27:10.395Z,25.77
2019-03-02T13:30:05.195Z,27.17
2019-03-02T13:32:59.661Z,29.90
2019-03-02T13:35:39.889Z,24.97
2019-03-02T13:38:21.127Z,29.67
2019-03-02T13:41:05.049Z,27.47
2019-03-02T13:43:44.255Z,30.03
2019-03-02T13:46:35.914Z,30.83
2019-03-02T13:49:33.826Z,29.47
2019-03-02T13:52:17.663Z,33.97
2019-03-02T13:55:13.482Z,36.30
2019-03-02T13:57:57.935Z,28.93
2019-03-02T14:00:40.647Z,26.87
2019-03-02T14:03:26.848Z,26.30
2019-03-02T14:06:29.828Z,29.40
2019-03-02T14:09:29.615Z,28.70
2019-03-02T14:12:19.915Z,27.87
2019-03-02T14:15:09.440Z,29.43
2019-03-02T14:18:12.415Z,26.23
2019-03-02T14:21:15.872Z,28.30
2019-03-02T14:24:07.780Z,27.60
2019-03-02T14:27:06.311Z,29.70
2019-03-02T14:29:55.730Z,29.63
2019-03-02T14:32:41.719Z,26.43
2019-03-02T14:35:32.594Z,27.20
2019-03-02T14:38:23.964Z,29.33
2019-03-02T14:41:04.809Z,23.93
2019-03-02T14:44:03.043Z,27.30
2019-03-02T14:47:06.050Z,23.60
2019-03-02T14:50:08.654Z,27.53
2019-03-02T14:52:58.021Z,25.97
2019-03-02T14:55:40.402Z,25.63
2019-03-02T14:58:37.734Z,27.27
2019-03-02T15:01:29.578Z,28.53
2019-03-02T15:04:11.681Z,31.37
2019-03-02T15:07:02.501Z,33.80
2019-03-02T15:09:59.232Z,32.67
2019-03-02T15:12:59.009Z,29.70
2019-03-02T15:16:00.065Z,23.90
2019-03-02T15:18:39.664Z,27.83
2019-03-02T15:21:28.856Z,29.77
2019-03-02T15:24:15.032Z,26.10
2019-03-02T15:27:20.250Z,28.80
2019-03-02T15:30:05.785Z,27.23
2019-03-02T15:32:57.676Z,29.83
2019-03-02T15:35:47.710Z,28.20
2019-03-02T15:38:40.055Z,29.37
2019-03-02T15:41:33.137Z,27.10
2019-03-02T15:44:27.231Z,34.97
2019-03-02T15:47:18.088Z,27.50
2019-03-02T15:50:13.435Z,28.20
2019-03-02T15:52:50.959Z,28.87
2019-03-02T15:55:41.186Z,22.77
2019-03-02T15:58:50.997Z,26.80
2019-03-02T16:01:54.056Z,26.97
2019-03-02T16:04:53.589Z,26.27
2019-03-02T16:07:44.365Z,37.60
2019-03-02T16:10:33.875Z,30.70
2019-03-02T16:13:24.425Z,29.27
2019-03-02T16:16:20.939Z,27.07
2019-03-02T16:19:08.563Z,30.53
2019-03-02T16:22:01.220Z,27.23
2019-03-02T16:24:52.063Z,23.63
2019-03-02T16:27:48.658Z,26.87
2019-03-02T16:30:36.535Z,25.30
2019-03-02T16:33:35.578Z,27.50
2019-03-02T16:36:23.675Z,24.77
2019-03-02T16:39:17.379Z,25.20
2019-03-02T16:42:07.054Z,22.73
2019-03-02T16:44:54.533Z,25.10
2019-03-02T16:47:38.391Z,22.00
2019-03-02T16:50:18.285Z,27.03
2019-03-02T16:53:16.134Z,21.97
2019-03-02T16:56:07.903Z,25.33
2019-03-02T16:58:58.860Z,24.07
2019-03-02T17:01:48.648Z,19.60
2019-03-02T17:04:39.898Z,23.93
2019-03-02T17:07:32.044Z,25.67
2019-03-02T17:10:25.869Z,24.83
2019-03-02T17:13:16.826Z,29.07
2019-03-02T17:15:58.767Z,21.03
2019-03-02T17:18:39.144Z,19.40
2019-03-02T17:21:44.873Z,20.37
2019-03-02T17:24:44.662Z,21.93
2019-03-02T17:27:38.625Z,19.27
2019-03-02T17:30:34.132Z,22.17
2019-03-02T17:33:16.502Z,20.03
2019-03-02T17:36:07.545Z,22.43
2019-03-02T17:39:07.375Z,23.37
2019-03-02T17:41:56.395Z,24.03
2019-03-02T17:44:50.235Z,23.43
2019-03-02T17:47:41.087Z,23.87
2019-03-02T17:50:32.153Z,22.43
2019-03-02T17:53:35.176Z,22.03
2019-03-02T17:56:21.950Z,20.13
2019-03-02T17:59:18.907Z,25.10
2019-03-02T18:02:09.872Z,16.47
2019-03-02T18:05:00.729Z,21.67
2019-03-02T18:07:50.105Z,23.67
2019-03-02T18:10:43.983Z,17.80
2019-03-02T18:13:35.125Z,20.20
2019-03-02T18:16:17.173Z,22.37
2019-03-02T18:18:49.196Z,21.33
2019-03-02T18:21:21.212Z,23.47
2019-03-02T18:23:55.801Z,20.97
2019-03-02T18:26:27.022Z,21.80
2019-03-02T18:28:59.125Z,27.70
2019-03-02T18:31:31.194Z,23.97
2019-03-02T18:34:07.273Z,23.23
2019-03-02T18:36:41.793Z,20.77
2019-03-02T18:39:13.184Z,21.70
2019-03-02T18:41:45.218Z,25.57
2019-03-02T18:44:17.778Z,23.80
2019-03-02T18:46:53.198Z,21.90
2019-03-02T18:49:47.553Z,21.50
2019-03-02T18:52:31.663Z,22.00
2019-03-02T18:55:03.760Z,20.07
2019-03-02T18:57:35.825Z,21.30
2019-03-02T19:00:16.165Z,19.50
2019-03-02T19:02:48.253Z,22.40
2019-03-02T19:05:28.787Z,22.87
2019-03-02T19:08:02.856Z,23.53
2019-03-02T19:10:35.062Z,27.23
2019-03-02T19:13:09.323Z,25.60
2019-03-02T19:15:41.440Z,22.87
2019-03-02T19:18:13.539Z,22.50
2019-03-02T19:20:45.966Z,25.70
2019-03-02T19:23:18.210Z,18.37
2019-03-02T19:25:50.337Z,27.13
2019-03-02T19:28:22.417Z,30.03
2019-03-02T19:30:54.444Z,25.37
2019-03-02T19:33:27.483Z,27.03
2019-03-02T19:35:59.497Z,25.80
2019-03-02T19:38:31.742Z,22.77
2019-03-02T19:41:06.094Z,20.77
2019-03-02T19:43:38.374Z,21.37
2019-03-02T19:46:11.677Z,19.37
2019-03-02T19:48:48.283Z,28.80
2019-03-02T19:51:28.182Z,23.27
2019-03-02T19:54:08.331Z,28.43
2019-03-02T19:56:44.906Z,26.03
2019-03-02T19:59:20.126Z,30.10
2019-03-02T20:01:52.491Z,22.07
2019-03-02T20:04:24.544Z,27.53
2019-03-02T20:06:56.683Z,29.93
2019-03-02T20:09:28.738Z,29.63
2019-03-02T20:12:00.819Z,22.47
2019-03-02T20:14:32.802Z,24.50
2019-03-02T20:17:04.939Z,29.50
2019-03-02T20:19:36.998Z,24.57
2019-03-02T20:22:09.204Z,25.30
2019-03-02T20:24:41.267Z,26.50
2019-03-02T20:27:13.400Z,21.93
2019-03-02T20:29:45.562Z,23.40
2019-03-02T20:32:17.671Z,24.53
2019-03-02T20:34:49.736Z,24.30
2019-03-02T20:37:21.855Z,16.63
2019-03-02T20:39:53.934Z,25.63
2019-03-02T20:42:26.376Z,26.90
2019-03-02T20:44:58.432Z,30.37
2019-03-02T20:47:32.510Z,28.17
2019-03-02T20:50:04.968Z,22.63
2019-03-02T20:52:37.052Z,18.60
2019-03-02T20:55:10.202Z,21.77
2019-03-02T20:57:42.293Z,23.67
2019-03-02T21:00:21.455Z,21.07
2019-03-02T21:02:53.989Z,17.03
2019-03-02T21:05:26.437Z,16.43
2019-03-02T21:07:58.679Z,19.20
2019-03-02T21:10:30.783Z,17.77
2019-03-02T21:13:02.874Z,19.10
2019-03-02T21:15:36.225Z,15.70
2019-03-02T21:18:08.365Z,18.87
2019-03-02T21:20:40.836Z,25.20
2019-03-02T21:23:12.947Z,20.10
2019-03-02T21:25:45.217Z,18.07
2019-03-02T21:28:17.383Z,20.47
2019-03-02T21:30:49.526Z,19.93
2019-03-02T21:33:21.682Z,21.13
2019-03-02T21:35:53.716Z,15.33
2019-03-02T21:38:25.783Z,18.20
2019-03-02T21:40:57.766Z,18.03
2019-03-02T21:43:29.781Z,22.00
2019-03-02T21:46:01.766Z,16.80
2019-03-02T21:48:34.252Z,17.40
2019-03-02T21:51:07.023Z,18.63
2019-03-02T21:53:39.138Z,20.03
2019-03-02T21:56:11.288Z,18.07
2019-03-02T21:58:43.321Z,17.73
2019-03-02T22:01:15.289Z,19.47
2019-03-02T22:03:47.310Z,15.93
2019-03-02T22:06:19.306Z,16.17
2019-03-02T22:08:51.335Z,14.63
2019-03-02T22:11:23.632Z,14.70
2019-03-02T22:13:55.601Z,15.57
2019-03-02T22:16:27.518Z,14.37
2019-03-02T22:19:00.181Z,14.37
2019-03-02T22:21:32.073Z,14.23
2019-03-02T22:24:04.020Z,15.13
2019-03-02T22:26:36.033Z,18.33
2019-03-02T22:29:08.062Z,16.10
2019-03-02T22:31:39.967Z,14.00
2019-03-02T22:34:11.907Z,14.33
2019-03-02T22:36:43.811Z,14.77
2019-03-02T22:39:15.746Z,19.37
2019-03-02T22:41:47.654Z,14.40
2019-03-02T22:44:19.594Z,20.50
2019-03-02T22:46:51.496Z,10.47
2019-03-02T22:49:23.430Z,13.33
2019-03-02T22:51:55.329Z,10.27
2019-03-02T22:54:27.257Z,11.03
2019-03-02T22:56:59.160Z,11.93
2019-03-02T22:59:31.093Z,13.80
2019-03-02T23:02:20.873Z,13.23
2019-03-02T23:04:52.809Z,12.30
2019-03-02T23:07:24.747Z,11.00
2019-03-02T23:09:56.644Z,9.00
2019-03-02T23:12:28.590Z,12.80
2019-03-02T23:15:00.494Z,10.50
2019-03-02T23:17:32.433Z,10.53
2019-03-02T23:20:04.529Z,13.33
2019-03-02T23:22:36.480Z,12.67
2019-03-02T23:25:08.820Z,11.87
2019-03-02T23:27:40.795Z,10.73
2019-03-02T23:30:14.090Z,10.33
2019-03-02T23:32:46.134Z,13.07
2019-03-02T23:35:18.287Z,9.40
2019-03-02T23:37:50.219Z,8.67
2019-03-02T23:40:24.021Z,7.00
2019-03-02T23:42:56.166Z,6.90
2019-03-02T23:45:28.100Z,8.67
2019-03-02T23:48:00.093Z,7.20
2019-03-02T23:50:32.024Z,8.83
2019-03-02T23:53:03.953Z,7.10
2019-03-02T23:55:35.888Z,8.33
2019-03-02T23:58:07.828Z,8.00
